sensor_id;sensor_type;location;lat;lon;timestamp;P1;durP1;ratioP1;P2;durP2;ratioP2
21601;SDS011;10963;50.934;4.668;2022-08-18T00:01:41;58.70;;;37.17;;
21601;SDS011;10963;50.934;4.668;2022-08-18T00:04:11;60.10;;;36.77;;
21601;SDS011;10963;50.934;4.668;2022-08-18T00:06:42;66.33;;;39.53;;
21601;SDS011;10963;50.934;4.668;2022-08-18T00:09:12;59.70;;;36.47;;
21601;SDS011;10963;50.934;4.668;2022-08-18T00:11:39;56.53;;;34.33;;
21601;SDS011;10963;50.934;4.668;2022-08-18T00:14:10;49.33;;;30.93;;
21601;SDS011;10963;50.934;4.668;2022-08-18T00:16:44;48.70;;;29.83;;
21601;SDS011;10963;50.934;4.668;2022-08-18T00:19:14;52.77;;;31.33;;
21601;SDS011;10963;50.934;4.668;2022-08-18T00:21:41;48.20;;;27.83;;
21601;SDS011;10963;50.934;4.668;2022-08-18T00:24:09;51.20;;;30.67;;
21601;SDS011;10963;50.934;4.668;2022-08-18T00:26:34;48.83;;;29.77;;
21601;SDS011;10963;50.934;4.668;2022-08-18T00:29:06;49.83;;;31.67;;
21601;SDS011;10963;50.934;4.668;2022-08-18T00:31:32;47.10;;;30.73;;
21601;SDS011;10963;50.934;4.668;2022-08-18T00:33:58;47.47;;;30.40;;
21601;SDS011;10963;50.934;4.668;2022-08-18T00:36:24;50.00;;;30.70;;
21601;SDS011;10963;50.934;4.668;2022-08-18T00:38:51;52.67;;;29.57;;
21601;SDS011;10963;50.934;4.668;2022-08-18T00:41:17;48.20;;;30.87;;
21601;SDS011;10963;50.934;4.668;2022-08-18T00:43:48;53.60;;;33.60;;
21601;SDS011;10963;50.934;4.668;2022-08-18T00:46:19;53.40;;;32.90;;
21601;SDS011;10963;50.934;4.668;2022-08-18T00:48:54;55.20;;;32.87;;
21601;SDS011;10963;50.934;4.668;2022-08-18T00:51:29;62.27;;;36.47;;
21601;SDS011;10963;50.934;4.668;2022-08-18T00:56:45;69.43;;;39.53;;
21601;SDS011;10963;50.934;4.668;2022-08-18T00:59:52;69.90;;;39.50;;
21601;SDS011;10963;50.934;4.668;2022-08-18T01:02:27;63.77;;;36.57;;
21601;SDS011;10963;50.934;4.668;2022-08-18T01:05:03;61.97;;;36.37;;
21601;SDS011;10963;50.934;4.668;2022-08-18T01:07:44;76.30;;;39.13;;
21601;SDS011;10963;50.934;4.668;2022-08-18T01:10:16;81.03;;;42.27;;
21601;SDS011;10963;50.934;4.668;2022-08-18T01:12:49;84.43;;;40.83;;
21601;SDS011;10963;50.934;4.668;2022-08-18T01:15:20;75.97;;;38.90;;
21601;SDS011;10963;50.934;4.668;2022-08-18T01:17:49;75.33;;;38.60;;
21601;SDS011;10963;50.934;4.668;2022-08-18T01:23:38;85.80;;;42.37;;
21601;SDS011;10963;50.934;4.668;2022-08-18T01:26:07;91.27;;;44.20;;
21601;SDS011;10963;50.934;4.668;2022-08-18T01:28:39;81.73;;;40.40;;
21601;SDS011;10963;50.934;4.668;2022-08-18T01:31:09;84.23;;;40.13;;
21601;SDS011;10963;50.934;4.668;2022-08-18T01:33:41;82.93;;;40.50;;
21601;SDS011;10963;50.934;4.668;2022-08-18T01:36:16;78.23;;;40.67;;
21601;SDS011;10963;50.934;4.668;2022-08-18T01:38:50;86.57;;;41.60;;
21601;SDS011;10963;50.934;4.668;2022-08-18T01:41:18;84.00;;;42.13;;
21601;SDS011;10963;50.934;4.668;2022-08-18T01:43:48;75.83;;;41.00;;
21601;SDS011;10963;50.934;4.668;2022-08-18T01:46:17;77.23;;;40.30;;
21601;SDS011;10963;50.934;4.668;2022-08-18T01:48:46;76.13;;;39.43;;
21601;SDS011;10963;50.934;4.668;2022-08-18T01:51:12;80.57;;;40.23;;
21601;SDS011;10963;50.934;4.668;2022-08-18T01:53:41;82.13;;;42.17;;
21601;SDS011;10963;50.934;4.668;2022-08-18T01:56:10;78.37;;;40.77;;
21601;SDS011;10963;50.934;4.668;2022-08-18T01:58:36;89.23;;;42.57;;
21601;SDS011;10963;50.934;4.668;2022-08-18T02:01:06;91.40;;;43.73;;
21601;SDS011;10963;50.934;4.668;2022-08-18T02:03:39;87.67;;;42.30;;
21601;SDS011;10963;50.934;4.668;2022-08-18T02:06:09;92.30;;;45.87;;
21601;SDS011;10963;50.934;4.668;2022-08-18T02:08:40;95.57;;;46.63;;
21601;SDS011;10963;50.934;4.668;2022-08-18T02:11:07;103.87;;;47.00;;
21601;SDS011;10963;50.934;4.668;2022-08-18T02:13:33;115.30;;;49.47;;
21601;SDS011;10963;50.934;4.668;2022-08-18T02:16:01;117.03;;;52.73;;
21601;SDS011;10963;50.934;4.668;2022-08-18T02:18:32;113.90;;;51.10;;
21601;SDS011;10963;50.934;4.668;2022-08-18T02:21:19;114.97;;;51.00;;
21601;SDS011;10963;50.934;4.668;2022-08-18T02:23:47;128.63;;;55.60;;
21601;SDS011;10963;50.934;4.668;2022-08-18T02:26:16;127.67;;;52.83;;
21601;SDS011;10963;50.934;4.668;2022-08-18T02:28:45;125.07;;;53.87;;
21601;SDS011;10963;50.934;4.668;2022-08-18T02:31:12;136.10;;;56.77;;
21601;SDS011;10963;50.934;4.668;2022-08-18T02:33:42;149.90;;;59.40;;
21601;SDS011;10963;50.934;4.668;2022-08-18T02:36:08;144.27;;;59.37;;
21601;SDS011;10963;50.934;4.668;2022-08-18T02:38:36;149.70;;;58.60;;
21601;SDS011;10963;50.934;4.668;2022-08-18T02:41:03;144.67;;;59.50;;
21601;SDS011;10963;50.934;4.668;2022-08-18T02:43:33;143.70;;;58.30;;
21601;SDS011;10963;50.934;4.668;2022-08-18T02:46:00;147.90;;;57.90;;
21601;SDS011;10963;50.934;4.668;2022-08-18T02:48:26;142.27;;;59.00;;
21601;SDS011;10963;50.934;4.668;2022-08-18T02:51:02;146.80;;;57.60;;
21601;SDS011;10963;50.934;4.668;2022-08-18T02:53:33;140.27;;;58.00;;
21601;SDS011;10963;50.934;4.668;2022-08-18T02:56:13;145.30;;;57.00;;
21601;SDS011;10963;50.934;4.668;2022-08-18T02:58:54;135.70;;;55.00;;
21601;SDS011;10963;50.934;4.668;2022-08-18T03:01:26;132.87;;;55.37;;
21601;SDS011;10963;50.934;4.668;2022-08-18T03:03:56;126.17;;;54.90;;
21601;SDS011;10963;50.934;4.668;2022-08-18T03:06:28;122.33;;;53.40;;
21601;SDS011;10963;50.934;4.668;2022-08-18T03:08:59;131.03;;;54.97;;
21601;SDS011;10963;50.934;4.668;2022-08-18T03:11:32;134.47;;;57.73;;
21601;SDS011;10963;50.934;4.668;2022-08-18T03:13:58;142.97;;;58.57;;
21601;SDS011;10963;50.934;4.668;2022-08-18T03:16:26;135.57;;;57.37;;
21601;SDS011;10963;50.934;4.668;2022-08-18T03:18:57;137.00;;;55.97;;
21601;SDS011;10963;50.934;4.668;2022-08-18T03:21:26;134.83;;;56.67;;
21601;SDS011;10963;50.934;4.668;2022-08-18T03:23:54;139.13;;;55.67;;
21601;SDS011;10963;50.934;4.668;2022-08-18T03:26:21;132.57;;;57.03;;
21601;SDS011;10963;50.934;4.668;2022-08-18T03:28:48;129.17;;;56.03;;
21601;SDS011;10963;50.934;4.668;2022-08-18T03:31:21;128.63;;;54.40;;
21601;SDS011;10963;50.934;4.668;2022-08-18T03:33:53;128.17;;;54.57;;
21601;SDS011;10963;50.934;4.668;2022-08-18T03:36:26;128.43;;;55.17;;
21601;SDS011;10963;50.934;4.668;2022-08-18T03:39:05;126.47;;;55.83;;
21601;SDS011;10963;50.934;4.668;2022-08-18T03:41:37;134.97;;;56.33;;
21601;SDS011;10963;50.934;4.668;2022-08-18T03:44:07;133.80;;;54.90;;
21601;SDS011;10963;50.934;4.668;2022-08-18T03:46:44;124.00;;;53.43;;
21601;SDS011;10963;50.934;4.668;2022-08-18T03:49:10;120.40;;;52.43;;
21601;SDS011;10963;50.934;4.668;2022-08-18T03:51:40;131.37;;;55.43;;
21601;SDS011;10963;50.934;4.668;2022-08-18T03:54:10;123.40;;;56.10;;
21601;SDS011;10963;50.934;4.668;2022-08-18T03:56:38;124.33;;;54.70;;
21601;SDS011;10963;50.934;4.668;2022-08-18T03:59:07;123.53;;;54.77;;
21601;SDS011;10963;50.934;4.668;2022-08-18T04:01:45;116.60;;;52.30;;
21601;SDS011;10963;50.934;4.668;2022-08-18T04:04:23;115.10;;;52.23;;
21601;SDS011;10963;50.934;4.668;2022-08-18T04:07:00;109.37;;;50.80;;
21601;SDS011;10963;50.934;4.668;2022-08-18T04:09:30;115.73;;;51.97;;
21601;SDS011;10963;50.934;4.668;2022-08-18T04:12:01;117.53;;;54.10;;
21601;SDS011;10963;50.934;4.668;2022-08-18T04:14:33;115.10;;;52.83;;
21601;SDS011;10963;50.934;4.668;2022-08-18T04:16:59;112.23;;;51.50;;
21601;SDS011;10963;50.934;4.668;2022-08-18T04:19:27;123.77;;;53.47;;
21601;SDS011;10963;50.934;4.668;2022-08-18T04:21:57;116.73;;;52.00;;
21601;SDS011;10963;50.934;4.668;2022-08-18T04:24:24;126.97;;;55.47;;
21601;SDS011;10963;50.934;4.668;2022-08-18T04:26:54;130.80;;;55.07;;
21601;SDS011;10963;50.934;4.668;2022-08-18T04:29:21;115.93;;;54.43;;
21601;SDS011;10963;50.934;4.668;2022-08-18T04:31:50;122.17;;;54.07;;
21601;SDS011;10963;50.934;4.668;2022-08-18T04:34:16;128.37;;;54.40;;
21601;SDS011;10963;50.934;4.668;2022-08-18T04:36:44;119.80;;;53.43;;
21601;SDS011;10963;50.934;4.668;2022-08-18T04:39:15;122.67;;;53.87;;
21601;SDS011;10963;50.934;4.668;2022-08-18T04:41:43;120.73;;;53.53;;
21601;SDS011;10963;50.934;4.668;2022-08-18T04:44:10;116.80;;;53.90;;
21601;SDS011;10963;50.934;4.668;2022-08-18T04:46:40;120.37;;;51.53;;
21601;SDS011;10963;50.934;4.668;2022-08-18T04:49:09;120.27;;;54.23;;
21601;SDS011;10963;50.934;4.668;2022-08-18T04:51:39;123.40;;;53.87;;
21601;SDS011;10963;50.934;4.668;2022-08-18T04:54:09;116.17;;;51.80;;
21601;SDS011;10963;50.934;4.668;2022-08-18T04:56:37;120.37;;;52.60;;
21601;SDS011;10963;50.934;4.668;2022-08-18T04:59:07;114.03;;;52.10;;
21601;SDS011;10963;50.934;4.668;2022-08-18T05:01:39;112.67;;;52.73;;
21601;SDS011;10963;50.934;4.668;2022-08-18T05:04:13;123.23;;;54.80;;
21601;SDS011;10963;50.934;4.668;2022-08-18T05:06:40;118.33;;;52.43;;
21601;SDS011;10963;50.934;4.668;2022-08-18T05:09:11;114.47;;;53.60;;
21601;SDS011;10963;50.934;4.668;2022-08-18T05:11:40;115.30;;;53.77;;
21601;SDS011;10963;50.934;4.668;2022-08-18T05:14:08;120.83;;;54.97;;
21601;SDS011;10963;50.934;4.668;2022-08-18T05:16:34;111.33;;;54.07;;
21601;SDS011;10963;50.934;4.668;2022-08-18T05:19:02;117.17;;;54.10;;
21601;SDS011;10963;50.934;4.668;2022-08-18T05:21:32;116.80;;;53.37;;
21601;SDS011;10963;50.934;4.668;2022-08-18T05:24:03;118.50;;;56.23;;
21601;SDS011;10963;50.934;4.668;2022-08-18T05:26:32;118.63;;;54.57;;
21601;SDS011;10963;50.934;4.668;2022-08-18T05:28:58;123.53;;;54.47;;
21601;SDS011;10963;50.934;4.668;2022-08-18T05:31:25;117.27;;;53.90;;
21601;SDS011;10963;50.934;4.668;2022-08-18T05:33:53;115.73;;;53.03;;
21601;SDS011;10963;50.934;4.668;2022-08-18T05:36:28;117.63;;;53.70;;
21601;SDS011;10963;50.934;4.668;2022-08-18T05:42:04;113.80;;;52.97;;
21601;SDS011;10963;50.934;4.668;2022-08-18T05:44:39;108.33;;;52.27;;
21601;SDS011;10963;50.934;4.668;2022-08-18T05:49:50;108.67;;;52.10;;
21601;SDS011;10963;50.934;4.668;2022-08-18T05:52:19;102.50;;;50.70;;
21601;SDS011;10963;50.934;4.668;2022-08-18T05:55:17;107.63;;;51.47;;
21601;SDS011;10963;50.934;4.668;2022-08-18T05:58:11;99.87;;;49.40;;
21601;SDS011;10963;50.934;4.668;2022-08-18T06:00:45;99.17;;;50.33;;
21601;SDS011;10963;50.934;4.668;2022-08-18T06:03:20;103.30;;;51.03;;
21601;SDS011;10963;50.934;4.668;2022-08-18T06:06:19;101.47;;;50.27;;
21601;SDS011;10963;50.934;4.668;2022-08-18T06:09:36;98.17;;;48.60;;
21601;SDS011;10963;50.934;4.668;2022-08-18T06:12:18;98.47;;;50.47;;
21601;SDS011;10963;50.934;4.668;2022-08-18T06:14:46;100.93;;;50.60;;
21601;SDS011;10963;50.934;4.668;2022-08-18T06:20:10;90.03;;;46.93;;
21601;SDS011;10963;50.934;4.668;2022-08-18T06:25:17;93.27;;;47.53;;
21601;SDS011;10963;50.934;4.668;2022-08-18T06:28:07;89.50;;;47.63;;
21601;SDS011;10963;50.934;4.668;2022-08-18T06:31:05;81.43;;;45.37;;
21601;SDS011;10963;50.934;4.668;2022-08-18T06:39:22;80.50;;;44.30;;
21601;SDS011;10963;50.934;4.668;2022-08-18T06:42:07;75.43;;;43.50;;
21601;SDS011;10963;50.934;4.668;2022-08-18T06:44:36;73.33;;;41.47;;
21601;SDS011;10963;50.934;4.668;2022-08-18T06:50:07;63.30;;;40.17;;
21601;SDS011;10963;50.934;4.668;2022-08-18T06:52:57;67.33;;;39.37;;
21601;SDS011;10963;50.934;4.668;2022-08-18T06:55:43;58.73;;;37.33;;
21601;SDS011;10963;50.934;4.668;2022-08-18T07:00:38;58.43;;;36.23;;
21601;SDS011;10963;50.934;4.668;2022-08-18T07:03:14;63.77;;;39.20;;
21601;SDS011;10963;50.934;4.668;2022-08-18T07:08:33;59.77;;;38.83;;
21601;SDS011;10963;50.934;4.668;2022-08-18T07:13:50;67.87;;;39.37;;
21601;SDS011;10963;50.934;4.668;2022-08-18T07:18:52;65.83;;;39.03;;
21601;SDS011;10963;50.934;4.668;2022-08-18T07:21:29;60.90;;;38.27;;
21601;SDS011;10963;50.934;4.668;2022-08-18T07:24:41;63.20;;;39.00;;
21601;SDS011;10963;50.934;4.668;2022-08-18T07:29:24;59.63;;;37.73;;
21601;SDS011;10963;50.934;4.668;2022-08-18T07:31:51;57.57;;;36.23;;
21601;SDS011;10963;50.934;4.668;2022-08-18T07:39:46;61.57;;;37.40;;
21601;SDS011;10963;50.934;4.668;2022-08-18T07:42:43;57.87;;;37.20;;
21601;SDS011;10963;50.934;4.668;2022-08-18T07:45:21;56.13;;;37.27;;
21601;SDS011;10963;50.934;4.668;2022-08-18T07:48:09;60.13;;;37.67;;
21601;SDS011;10963;50.934;4.668;2022-08-18T07:50:42;55.50;;;36.53;;
21601;SDS011;10963;50.934;4.668;2022-08-18T07:53:13;57.47;;;34.80;;
21601;SDS011;10963;50.934;4.668;2022-08-18T07:55:43;55.92;;;34.20;;
21601;SDS011;10963;50.934;4.668;2022-08-18T07:58:29;45.93;;;31.20;;
21601;SDS011;10963;50.934;4.668;2022-08-18T08:07:11;42.05;;;29.30;;
21601;SDS011;10963;50.934;4.668;2022-08-18T08:21:17;31.50;;;21.35;;
21601;SDS011;10963;50.934;4.668;2022-08-18T08:32:11;28.63;;;21.08;;
21601;SDS011;10963;50.934;4.668;2022-08-18T08:34:51;34.17;;;19.98;;
21601;SDS011;10963;50.934;4.668;2022-08-18T08:40:20;18.85;;;15.40;;
21601;SDS011;10963;50.934;4.668;2022-08-18T08:42:55;20.50;;;14.48;;
21601;SDS011;10963;50.934;4.668;2022-08-18T08:45:35;22.00;;;15.45;;
21601;SDS011;10963;50.934;4.668;2022-08-18T08:48:11;24.88;;;17.75;;
21601;SDS011;10963;50.934;4.668;2022-08-18T08:50:49;27.02;;;18.83;;
21601;SDS011;10963;50.934;4.668;2022-08-18T08:53:31;25.27;;;17.98;;
21601;SDS011;10963;50.934;4.668;2022-08-18T08:56:11;25.20;;;18.52;;
21601;SDS011;10963;50.934;4.668;2022-08-18T09:01:09;21.63;;;16.85;;
21601;SDS011;10963;50.934;4.668;2022-08-18T09:03:52;20.83;;;16.73;;
21601;SDS011;10963;50.934;4.668;2022-08-18T09:06:46;19.38;;;17.00;;
21601;SDS011;10963;50.934;4.668;2022-08-18T09:14:51;21.50;;;15.27;;
21601;SDS011;10963;50.934;4.668;2022-08-18T09:23:18;18.95;;;14.55;;
21601;SDS011;10963;50.934;4.668;2022-08-18T09:25:50;19.70;;;15.35;;
21601;SDS011;10963;50.934;4.668;2022-08-18T09:28:22;18.40;;;14.88;;
21601;SDS011;10963;50.934;4.668;2022-08-18T09:31:20;18.63;;;14.20;;
21601;SDS011;10963;50.934;4.668;2022-08-18T09:39:36;18.63;;;15.30;;
21601;SDS011;10963;50.934;4.668;2022-08-18T09:43:22;17.50;;;14.68;;
21601;SDS011;10963;50.934;4.668;2022-08-18T09:45:56;19.00;;;15.30;;
21601;SDS011;10963;50.934;4.668;2022-08-18T09:50:56;17.63;;;13.18;;
21601;SDS011;10963;50.934;4.668;2022-08-18T09:56:14;17.65;;;13.68;;
21601;SDS011;10963;50.934;4.668;2022-08-18T09:58:53;15.38;;;13.73;;
21601;SDS011;10963;50.934;4.668;2022-08-18T10:06:46;13.95;;;12.48;;
21601;SDS011;10963;50.934;4.668;2022-08-18T10:22:51;13.32;;;10.20;;
21601;SDS011;10963;50.934;4.668;2022-08-18T10:27:58;12.20;;;9.60;;
21601;SDS011;10963;50.934;4.668;2022-08-18T10:33:01;10.35;;;9.38;;
21601;SDS011;10963;50.934;4.668;2022-08-18T10:38:01;9.70;;;8.80;;
21601;SDS011;10963;50.934;4.668;2022-08-18T10:40:34;9.25;;;8.35;;
21601;SDS011;10963;50.934;4.668;2022-08-18T10:43:09;12.02;;;8.50;;
21601;SDS011;10963;50.934;4.668;2022-08-18T10:45:45;10.27;;;9.27;;
21601;SDS011;10963;50.934;4.668;2022-08-18T10:48:29;10.50;;;8.32;;
21601;SDS011;10963;50.934;4.668;2022-08-18T10:51:13;12.68;;;8.00;;
21601;SDS011;10963;50.934;4.668;2022-08-18T10:53:53;11.25;;;8.80;;
21601;SDS011;10963;50.934;4.668;2022-08-18T10:56:45;9.45;;;8.38;;
21601;SDS011;10963;50.934;4.668;2022-08-18T10:59:26;12.10;;;9.77;;
21601;SDS011;10963;50.934;4.668;2022-08-18T11:04:46;10.30;;;8.75;;
21601;SDS011;10963;50.934;4.668;2022-08-18T11:09:51;13.40;;;8.45;;
21601;SDS011;10963;50.934;4.668;2022-08-18T11:20:52;8.90;;;7.90;;
21601;SDS011;10963;50.934;4.668;2022-08-18T11:23:21;8.02;;;7.32;;
21601;SDS011;10963;50.934;4.668;2022-08-18T11:25:49;8.88;;;8.05;;
21601;SDS011;10963;50.934;4.668;2022-08-18T11:28:19;11.55;;;7.93;;
21601;SDS011;10963;50.934;4.668;2022-08-18T11:30:48;10.00;;;8.73;;
21601;SDS011;10963;50.934;4.668;2022-08-18T11:33:21;8.57;;;7.80;;
21601;SDS011;10963;50.934;4.668;2022-08-18T11:35:50;8.65;;;7.85;;
21601;SDS011;10963;50.934;4.668;2022-08-18T11:38:21;8.82;;;8.02;;
21601;SDS011;10963;50.934;4.668;2022-08-18T11:40:49;8.35;;;7.65;;
21601;SDS011;10963;50.934;4.668;2022-08-18T11:43:30;10.65;;;8.43;;
21601;SDS011;10963;50.934;4.668;2022-08-18T11:46:00;11.05;;;7.95;;
21601;SDS011;10963;50.934;4.668;2022-08-18T11:48:46;9.48;;;8.57;;
21601;SDS011;10963;50.934;4.668;2022-08-18T11:58:52;9.65;;;8.77;;
21601;SDS011;10963;50.934;4.668;2022-08-18T12:01:32;8.52;;;7.72;;
21601;SDS011;10963;50.934;4.668;2022-08-18T12:04:06;9.85;;;8.88;;
21601;SDS011;10963;50.934;4.668;2022-08-18T12:12:43;10.05;;;8.95;;
21601;SDS011;10963;50.934;4.668;2022-08-18T12:17:51;11.55;;;10.13;;
21601;SDS011;10963;50.934;4.668;2022-08-18T12:20:17;11.65;;;10.55;;
21601;SDS011;10963;50.934;4.668;2022-08-18T12:22:45;12.52;;;11.23;;
21601;SDS011;10963;50.934;4.668;2022-08-18T12:25:16;12.93;;;11.38;;
21601;SDS011;10963;50.934;4.668;2022-08-18T12:27:45;15.05;;;13.27;;
21601;SDS011;10963;50.934;4.668;2022-08-18T12:30:18;14.50;;;13.05;;
21601;SDS011;10963;50.934;4.668;2022-08-18T12:32:46;13.88;;;12.50;;
21601;SDS011;10963;50.934;4.668;2022-08-18T12:35:12;16.77;;;15.10;;
21601;SDS011;10963;50.934;4.668;2022-08-18T12:37:40;17.30;;;15.60;;
21601;SDS011;10963;50.934;4.668;2022-08-18T12:40:12;17.20;;;15.40;;
21601;SDS011;10963;50.934;4.668;2022-08-18T12:42:38;15.75;;;14.30;;
21601;SDS011;10963;50.934;4.668;2022-08-18T12:45:09;15.68;;;14.02;;
21601;SDS011;10963;50.934;4.668;2022-08-18T12:47:38;15.90;;;14.35;;
21601;SDS011;10963;50.934;4.668;2022-08-18T12:50:09;14.32;;;12.85;;
21601;SDS011;10963;50.934;4.668;2022-08-18T12:52:40;15.55;;;14.10;;
21601;SDS011;10963;50.934;4.668;2022-08-18T12:55:06;12.88;;;11.68;;
21601;SDS011;10963;50.934;4.668;2022-08-18T12:57:36;13.27;;;11.98;;
21601;SDS011;10963;50.934;4.668;2022-08-18T13:00:04;16.98;;;11.85;;
21601;SDS011;10963;50.934;4.668;2022-08-18T13:02:32;14.25;;;12.60;;
21601;SDS011;10963;50.934;4.668;2022-08-18T13:05:00;16.27;;;14.68;;
21601;SDS011;10963;50.934;4.668;2022-08-18T13:07:26;16.48;;;14.77;;
21601;SDS011;10963;50.934;4.668;2022-08-18T13:09:54;17.70;;;15.60;;
21601;SDS011;10963;50.934;4.668;2022-08-18T13:12:22;16.88;;;15.27;;
21601;SDS011;10963;50.934;4.668;2022-08-18T13:14:51;20.30;;;17.15;;
21601;SDS011;10963;50.934;4.668;2022-08-18T13:17:21;18.13;;;16.10;;
21601;SDS011;10963;50.934;4.668;2022-08-18T13:19:50;19.38;;;17.38;;
21601;SDS011;10963;50.934;4.668;2022-08-18T13:22:20;18.48;;;16.67;;
21601;SDS011;10963;50.934;4.668;2022-08-18T13:24:49;21.23;;;18.83;;
21601;SDS011;10963;50.934;4.668;2022-08-18T13:27:20;20.83;;;17.52;;
21601;SDS011;10963;50.934;4.668;2022-08-18T13:29:46;21.35;;;17.45;;
21601;SDS011;10963;50.934;4.668;2022-08-18T13:32:15;20.17;;;18.17;;
21601;SDS011;10963;50.934;4.668;2022-08-18T13:34:43;18.98;;;17.02;;
21601;SDS011;10963;50.934;4.668;2022-08-18T13:37:09;20.17;;;18.08;;
21601;SDS011;10963;50.934;4.668;2022-08-18T13:39:39;22.15;;;19.25;;
21601;SDS011;10963;50.934;4.668;2022-08-18T13:42:04;21.25;;;19.17;;
21601;SDS011;10963;50.934;4.668;2022-08-18T13:44:30;19.92;;;17.92;;
21601;SDS011;10963;50.934;4.668;2022-08-18T13:46:56;19.55;;;17.65;;
21601;SDS011;10963;50.934;4.668;2022-08-18T13:49:27;20.05;;;17.95;;
21601;SDS011;10963;50.934;4.668;2022-08-18T13:51:55;20.75;;;18.75;;
21601;SDS011;10963;50.934;4.668;2022-08-18T13:54:23;22.98;;;17.58;;
21601;SDS011;10963;50.934;4.668;2022-08-18T13:57:00;19.55;;;17.58;;
21601;SDS011;10963;50.934;4.668;2022-08-18T13:59:29;19.00;;;17.23;;
21601;SDS011;10963;50.934;4.668;2022-08-18T14:02:08;20.02;;;17.92;;
21601;SDS011;10963;50.934;4.668;2022-08-18T14:04:38;23.27;;;18.58;;
21601;SDS011;10963;50.934;4.668;2022-08-18T14:07:05;20.40;;;18.30;;
21601;SDS011;10963;50.934;4.668;2022-08-18T14:09:37;20.35;;;18.33;;
21601;SDS011;10963;50.934;4.668;2022-08-18T14:12:06;22.02;;;19.83;;
21601;SDS011;10963;50.934;4.668;2022-08-18T14:14:59;23.30;;;20.90;;
21601;SDS011;10963;50.934;4.668;2022-08-18T14:17:25;24.30;;;21.75;;
21601;SDS011;10963;50.934;4.668;2022-08-18T14:19:51;23.75;;;21.35;;
21601;SDS011;10963;50.934;4.668;2022-08-18T14:22:37;23.13;;;20.90;;
21601;SDS011;10963;50.934;4.668;2022-08-18T14:25:23;22.50;;;20.17;;
21601;SDS011;10963;50.934;4.668;2022-08-18T14:28:07;22.92;;;20.52;;
21601;SDS011;10963;50.934;4.668;2022-08-18T14:30:36;21.17;;;18.98;;
21601;SDS011;10963;50.934;4.668;2022-08-18T14:33:06;23.15;;;20.73;;
21601;SDS011;10963;50.934;4.668;2022-08-18T14:35:35;24.40;;;21.63;;
21601;SDS011;10963;50.934;4.668;2022-08-18T14:38:01;25.25;;;22.58;;
21601;SDS011;10963;50.934;4.668;2022-08-18T14:40:28;23.88;;;21.42;;
21601;SDS011;10963;50.934;4.668;2022-08-18T14:43:00;25.70;;;22.70;;
21601;SDS011;10963;50.934;4.668;2022-08-18T14:45:28;25.65;;;23.05;;
21601;SDS011;10963;50.934;4.668;2022-08-18T14:47:54;23.42;;;21.10;;
21601;SDS011;10963;50.934;4.668;2022-08-18T14:50:21;25.63;;;22.90;;
21601;SDS011;10963;50.934;4.668;2022-08-18T14:52:48;24.88;;;22.38;;
21601;SDS011;10963;50.934;4.668;2022-08-18T14:55:14;26.02;;;23.38;;
21601;SDS011;10963;50.934;4.668;2022-08-18T14:57:45;24.85;;;22.30;;
21601;SDS011;10963;50.934;4.668;2022-08-18T15:00:17;24.17;;;21.70;;
21601;SDS011;10963;50.934;4.668;2022-08-18T15:02:46;22.80;;;20.48;;
21601;SDS011;10963;50.934;4.668;2022-08-18T15:05:15;23.55;;;21.25;;
21601;SDS011;10963;50.934;4.668;2022-08-18T15:07:43;23.88;;;21.58;;
21601;SDS011;10963;50.934;4.668;2022-08-18T15:10:12;24.33;;;21.83;;
21601;SDS011;10963;50.934;4.668;2022-08-18T15:12:42;25.40;;;21.67;;
21601;SDS011;10963;50.934;4.668;2022-08-18T15:15:11;23.13;;;20.75;;
21601;SDS011;10963;50.934;4.668;2022-08-18T15:17:40;25.33;;;22.20;;
21601;SDS011;10963;50.934;4.668;2022-08-18T15:20:09;22.58;;;20.38;;
21601;SDS011;10963;50.934;4.668;2022-08-18T15:22:37;22.95;;;20.48;;
21601;SDS011;10963;50.934;4.668;2022-08-18T15:25:23;23.65;;;20.73;;
21601;SDS011;10963;50.934;4.668;2022-08-18T15:28:19;24.23;;;21.80;;
21601;SDS011;10963;50.934;4.668;2022-08-18T15:30:48;24.65;;;22.02;;
21601;SDS011;10963;50.934;4.668;2022-08-18T15:33:18;24.30;;;21.83;;
21601;SDS011;10963;50.934;4.668;2022-08-18T15:35:48;24.08;;;21.73;;
21601;SDS011;10963;50.934;4.668;2022-08-18T15:38:18;25.45;;;21.73;;
21601;SDS011;10963;50.934;4.668;2022-08-18T15:40:47;23.67;;;20.70;;
21601;SDS011;10963;50.934;4.668;2022-08-18T15:43:22;23.90;;;21.40;;
21601;SDS011;10963;50.934;4.668;2022-08-18T15:45:51;20.10;;;17.85;;
21601;SDS011;10963;50.934;4.668;2022-08-18T15:48:20;20.70;;;18.40;;
21601;SDS011;10963;50.934;4.668;2022-08-18T15:50:47;21.42;;;19.08;;
21601;SDS011;10963;50.934;4.668;2022-08-18T15:53:19;21.25;;;19.10;;
21601;SDS011;10963;50.934;4.668;2022-08-18T15:55:54;20.77;;;18.67;;
21601;SDS011;10963;50.934;4.668;2022-08-18T15:58:27;21.58;;;18.05;;
21601;SDS011;10963;50.934;4.668;2022-08-18T16:00:55;20.63;;;18.48;;
21601;SDS011;10963;50.934;4.668;2022-08-18T16:03:26;19.35;;;17.10;;
21601;SDS011;10963;50.934;4.668;2022-08-18T16:05:56;15.80;;;14.20;;
21601;SDS011;10963;50.934;4.668;2022-08-18T16:08:25;15.45;;;13.82;;
21601;SDS011;10963;50.934;4.668;2022-08-18T16:10:53;14.15;;;12.75;;
21601;SDS011;10963;50.934;4.668;2022-08-18T16:13:22;15.98;;;14.20;;
21601;SDS011;10963;50.934;4.668;2022-08-18T16:15:53;14.05;;;12.65;;
21601;SDS011;10963;50.934;4.668;2022-08-18T16:18:21;15.00;;;13.50;;
21601;SDS011;10963;50.934;4.668;2022-08-18T16:20:47;11.75;;;9.80;;
21601;SDS011;10963;50.934;4.668;2022-08-18T16:23:15;10.95;;;9.93;;
21601;SDS011;10963;50.934;4.668;2022-08-18T16:25:43;10.85;;;9.73;;
21601;SDS011;10963;50.934;4.668;2022-08-18T16:28:09;10.98;;;9.88;;
21601;SDS011;10963;50.934;4.668;2022-08-18T16:30:45;10.57;;;9.57;;
21601;SDS011;10963;50.934;4.668;2022-08-18T16:33:16;11.77;;;9.95;;
21601;SDS011;10963;50.934;4.668;2022-08-18T16:35:43;11.30;;;9.35;;
21601;SDS011;10963;50.934;4.668;2022-08-18T16:38:14;12.55;;;9.73;;
21601;SDS011;10963;50.934;4.668;2022-08-18T16:40:42;11.80;;;9.93;;
21601;SDS011;10963;50.934;4.668;2022-08-18T16:43:08;11.07;;;9.93;;
21601;SDS011;10963;50.934;4.668;2022-08-18T16:45:37;10.65;;;9.63;;
21601;SDS011;10963;50.934;4.668;2022-08-18T16:48:07;12.93;;;9.80;;
21601;SDS011;10963;50.934;4.668;2022-08-18T16:50:37;11.82;;;9.77;;
21601;SDS011;10963;50.934;4.668;2022-08-18T16:53:06;11.82;;;10.50;;
21601;SDS011;10963;50.934;4.668;2022-08-18T16:55:32;12.23;;;9.77;;
21601;SDS011;10963;50.934;4.668;2022-08-18T16:57:59;11.15;;;9.20;;
21601;SDS011;10963;50.934;4.668;2022-08-18T17:00:46;11.50;;;10.48;;
21601;SDS011;10963;50.934;4.668;2022-08-18T17:03:30;15.43;;;10.23;;
21601;SDS011;10963;50.934;4.668;2022-08-18T17:06:15;11.38;;;9.88;;
21601;SDS011;10963;50.934;4.668;2022-08-18T17:08:42;10.10;;;9.20;;
21601;SDS011;10963;50.934;4.668;2022-08-18T17:11:10;13.13;;;9.63;;
21601;SDS011;10963;50.934;4.668;2022-08-18T17:13:40;10.65;;;9.65;;
21601;SDS011;10963;50.934;4.668;2022-08-18T17:16:08;9.93;;;8.98;;
21601;SDS011;10963;50.934;4.668;2022-08-18T17:18:35;12.25;;;9.48;;
21601;SDS011;10963;50.934;4.668;2022-08-18T17:21:03;10.25;;;9.13;;
21601;SDS011;10963;50.934;4.668;2022-08-18T17:23:32;10.30;;;9.15;;
21601;SDS011;10963;50.934;4.668;2022-08-18T17:26:03;10.25;;;8.77;;